createdAt,value
2023-08-11T00:02:53.421Z,3.92
2023-08-11T00:07:52.215Z,13.48
2023-08-11T00:12:44.176Z,6.28
2023-08-11T00:17:35.961Z,5.13
2023-08-11T00:22:27.753Z,6.47
2023-08-11T00:27:21.179Z,7.50
2023-08-11T00:32:13.028Z,6.05
2023-08-11T00:37:05.477Z,5.88
2023-08-11T00:41:57.392Z,3.20
2023-08-11T00:46:49.301Z,5.45
2023-08-11T00:51:42.422Z,6.20
2023-08-11T00:56:35.069Z,4.32
2023-08-11T01:01:29.689Z,10.80
2023-08-11T01:06:40.947Z,8.43
2023-08-11T01:11:45.967Z,13.65
2023-08-11T01:16:37.932Z,20.02
2023-08-11T01:21:35.759Z,8.57
2023-08-11T01:26:28.210Z,7.53
2023-08-11T01:31:21.373Z,9.45
2023-08-11T01:36:16.076Z,8.52
2023-08-11T01:41:07.950Z,6.43
2023-08-11T01:45:59.796Z,8.05
2023-08-11T01:50:51.608Z,4.13
2023-08-11T01:55:44.308Z,7.30
2023-08-11T02:00:36.196Z,6.85
2023-08-11T02:05:28.067Z,6.07
2023-08-11T02:10:19.851Z,5.70
2023-08-11T02:15:12.191Z,5.82
2023-08-11T02:20:23.567Z,6.03
2023-08-11T02:25:16.648Z,3.72
2023-08-11T02:30:12.307Z,4.65
2023-08-11T02:35:04.821Z,4.57
2023-08-11T02:39:56.648Z,3.92
2023-08-11T02:44:48.460Z,6.50
2023-08-11T02:49:40.256Z,4.55
2023-08-11T02:54:32.340Z,4.90
2023-08-11T02:59:24.187Z,7.57
2023-08-11T03:04:17.641Z,8.85
2023-08-11T03:09:11.288Z,8.48
2023-08-11T03:14:03.394Z,6.68
2023-08-11T03:18:55.302Z,5.32
2023-08-11T03:23:47.281Z,4.97
2023-08-11T03:28:39.200Z,5.97
2023-08-11T03:33:31.485Z,5.07
2023-08-11T03:38:31.795Z,5.82
2023-08-11T03:43:23.661Z,7.85
2023-08-11T03:48:15.485Z,5.32
2023-08-11T03:53:08.370Z,4.72
2023-08-11T03:58:01.687Z,5.65
2023-08-11T04:02:55.332Z,7.03
2023-08-11T04:07:47.336Z,7.50
2023-08-11T04:12:39.708Z,8.20
2023-08-11T04:17:34.950Z,7.30
2023-08-11T04:22:37.281Z,7.03
2023-08-11T04:27:30.992Z,8.02
2023-08-11T04:32:22.814Z,15.65
2023-08-11T04:37:14.633Z,12.88
2023-08-11T04:42:06.900Z,10.30
2023-08-11T04:46:58.960Z,12.32
2023-08-11T04:51:51.421Z,16.10
2023-08-11T04:56:44.349Z,17.33
2023-08-11T05:01:36.589Z,15.90
2023-08-11T05:06:28.388Z,18.58
2023-08-11T05:11:20.186Z,16.65
2023-08-11T05:16:11.981Z,18.65
2023-08-11T05:21:06.971Z,14.93
2023-08-11T05:25:58.744Z,16.40
2023-08-11T05:30:51.112Z,9.20
2023-08-11T05:35:42.929Z,8.88
2023-08-11T05:40:34.713Z,9.00
2023-08-11T05:45:26.540Z,10.40
2023-08-11T05:50:18.730Z,7.80
2023-08-11T05:55:10.766Z,9.57
2023-08-11T06:00:04.645Z,7.95
2023-08-11T06:05:05.156Z,6.97
2023-08-11T06:09:57.003Z,9.15
2023-08-11T06:14:48.799Z,8.45
2023-08-11T06:19:40.559Z,7.82
2023-08-11T06:24:32.347Z,8.95
2023-08-11T06:29:24.335Z,7.68
2023-08-11T06:34:18.648Z,7.53
2023-08-11T06:39:12.010Z,7.95
2023-08-11T06:44:04.034Z,10.32
2023-08-11T06:48:55.808Z,7.95
2023-08-11T06:53:47.692Z,8.65
2023-08-11T06:58:39.491Z,10.68
2023-08-11T07:03:32.011Z,10.85
2023-08-11T07:08:24.088Z,9.68
2023-08-11T07:13:16.051Z,8.60
2023-08-11T07:18:08.006Z,7.47
2023-08-11T07:22:59.832Z,12.75
2023-08-11T07:27:51.712Z,9.50
2023-08-11T07:32:43.604Z,5.78
2023-08-11T07:37:35.480Z,11.00
2023-08-11T07:42:27.442Z,10.50
2023-08-11T07:47:19.239Z,5.80
2023-08-11T07:52:11.052Z,8.18
2023-08-11T07:57:02.899Z,7.90
2023-08-11T08:01:54.755Z,7.20
2023-08-11T08:06:46.975Z,5.47
2023-08-11T08:11:44.115Z,5.53
2023-08-11T08:16:36.060Z,4.00
2023-08-11T08:21:27.914Z,4.63
2023-08-11T08:26:19.707Z,4.82
2023-08-11T08:31:11.542Z,5.32
2023-08-11T08:36:03.821Z,9.07
2023-08-11T08:40:56.399Z,6.25
2023-08-11T08:45:52.172Z,3.13
2023-08-11T08:50:44.031Z,4.85
2023-08-11T08:55:36.022Z,5.53
2023-08-11T09:00:27.899Z,4.45
2023-08-11T09:05:20.034Z,3.20
2023-08-11T09:10:11.872Z,2.38
2023-08-11T09:15:10.964Z,3.63
2023-08-11T09:20:04.242Z,4.80
2023-08-11T09:24:57.119Z,2.85
2023-08-11T09:29:50.994Z,5.75
2023-08-11T09:34:45.058Z,3.13
2023-08-11T09:39:37.893Z,6.72
2023-08-11T09:44:29.932Z,4.82
2023-08-11T09:49:21.743Z,6.05
2023-08-11T09:54:15.650Z,4.05
2023-08-11T09:59:12.021Z,5.18
2023-08-11T10:04:11.970Z,5.07
2023-08-11T10:09:06.196Z,5.72
2023-08-11T10:13:58.352Z,5.50
2023-08-11T10:18:50.770Z,3.85
2023-08-11T10:23:42.705Z,3.88
2023-08-11T10:28:35.292Z,5.25
2023-08-11T10:33:31.223Z,3.45
2023-08-11T10:38:31.148Z,4.00
2023-08-11T10:43:30.413Z,3.53
2023-08-11T10:48:24.415Z,5.80
2023-08-11T10:53:21.058Z,2.90
2023-08-11T10:58:13.592Z,3.25
2023-08-11T11:03:05.932Z,5.55
2023-08-11T11:07:57.767Z,3.50
2023-08-11T11:12:49.683Z,3.05
2023-08-11T11:17:42.029Z,4.55
2023-08-11T11:22:33.894Z,5.38
2023-08-11T11:27:25.674Z,3.40
2023-08-11T11:32:18.266Z,4.35
2023-08-11T11:37:10.656Z,3.20
2023-08-11T11:42:08.065Z,4.82
2023-08-11T11:47:00.129Z,4.45
2023-08-11T11:51:52.492Z,5.22
2023-08-11T11:56:54.232Z,3.65
2023-08-11T12:01:59.320Z,3.50
2023-08-11T12:06:51.088Z,3.78
2023-08-11T12:11:43.126Z,5.57
2023-08-11T12:16:36.320Z,6.57
2023-08-11T12:21:29.314Z,3.17
2023-08-11T12:26:21.130Z,4.43
2023-08-11T12:31:14.122Z,4.22
2023-08-11T12:36:06.404Z,4.90
2023-08-11T12:40:58.789Z,6.10
2023-08-11T12:45:50.998Z,3.40
2023-08-11T12:50:43.189Z,3.08
2023-08-11T12:55:36.298Z,5.00
2023-08-11T13:00:28.508Z,3.83
2023-08-11T13:05:20.495Z,3.47
2023-08-11T13:10:12.454Z,3.60
2023-08-11T13:15:05.701Z,3.30
2023-08-11T13:19:57.593Z,4.72
2023-08-11T13:24:49.342Z,8.20
2023-08-11T13:29:41.172Z,5.70
2023-08-11T13:34:32.972Z,7.20
2023-08-11T13:39:24.833Z,3.92
2023-08-11T13:44:16.854Z,5.60
2023-08-11T13:49:08.677Z,3.75
2023-08-11T13:54:04.994Z,3.63
2023-08-11T13:58:56.800Z,7.10
2023-08-11T14:03:48.853Z,4.78
2023-08-11T14:08:41.019Z,3.13
2023-08-11T14:13:33.108Z,3.40
2023-08-11T14:18:46.402Z,7.00
2023-08-11T14:23:38.284Z,3.90
2023-08-11T14:28:30.129Z,3.65
2023-08-11T14:33:21.907Z,3.83
2023-08-11T14:38:13.908Z,6.22
2023-08-11T14:43:05.851Z,3.75
2023-08-11T14:47:58.039Z,5.53
2023-08-11T14:52:49.849Z,2.97
2023-08-11T14:57:41.808Z,4.82
2023-08-11T15:02:33.703Z,3.15
2023-08-11T15:07:25.618Z,3.42
2023-08-11T15:12:17.411Z,4.45
2023-08-11T15:17:09.186Z,2.58
2023-08-11T15:22:01.094Z,5.15
2023-08-11T15:26:52.937Z,5.63
2023-08-11T15:31:44.794Z,4.63
2023-08-11T15:36:36.690Z,3.05
2023-08-11T15:41:28.498Z,4.20
2023-08-11T15:46:20.386Z,3.55
2023-08-11T15:51:12.244Z,3.17
2023-08-11T15:56:04.527Z,4.50
2023-08-11T16:00:57.456Z,3.97
2023-08-11T16:05:49.326Z,4.40
2023-08-11T16:10:41.161Z,4.68
2023-08-11T16:15:33.016Z,3.45
2023-08-11T16:20:24.808Z,6.90
2023-08-11T16:25:16.581Z,3.28
2023-08-11T16:30:11.442Z,9.73
2023-08-11T16:35:03.405Z,4.97
2023-08-11T16:39:55.181Z,6.70
2023-08-11T16:44:47.092Z,6.28
2023-08-11T16:49:38.857Z,5.45
2023-08-11T16:54:33.578Z,4.20
2023-08-11T16:59:25.697Z,3.33
2023-08-11T17:04:17.600Z,13.00
2023-08-11T17:09:09.451Z,3.30
2023-08-11T17:14:01.262Z,3.30
2023-08-11T17:18:53.103Z,2.80
2023-08-11T17:23:45.004Z,5.65
2023-08-11T17:28:36.779Z,4.55
2023-08-11T17:33:28.619Z,3.40
2023-08-11T17:38:20.481Z,4.10
2023-08-11T17:43:12.261Z,7.38
2023-08-11T17:48:04.365Z,4.30
2023-08-11T17:52:56.190Z,6.88
2023-08-11T17:57:48.120Z,4.53
2023-08-11T18:02:40.132Z,3.38
2023-08-11T18:07:31.955Z,3.50
2023-08-11T18:12:26.108Z,7.57
2023-08-11T18:17:17.863Z,3.25
2023-08-11T18:22:09.852Z,4.53
2023-08-11T18:27:01.843Z,4.97
2023-08-11T18:31:53.583Z,4.03
2023-08-11T18:36:45.351Z,6.03
2023-08-11T18:41:37.181Z,6.15
2023-08-11T18:46:29.016Z,4.90
2023-08-11T18:51:20.794Z,3.88
2023-08-11T18:56:12.564Z,5.00
2023-08-11T19:01:04.456Z,5.28
2023-08-11T19:05:59.406Z,7.22
2023-08-11T19:10:51.174Z,8.00
2023-08-11T19:15:47.563Z,8.13
2023-08-11T19:20:39.421Z,5.05
2023-08-11T19:25:31.237Z,4.68
2023-08-11T19:30:23.041Z,5.03
2023-08-11T19:35:14.877Z,5.78
2023-08-11T19:40:07.243Z,6.97
2023-08-11T19:44:59.036Z,3.67
2023-08-11T19:49:51.187Z,4.85
2023-08-11T19:54:42.981Z,7.45
2023-08-11T19:59:34.722Z,7.88
2023-08-11T20:04:26.624Z,4.57
2023-08-11T20:09:20.457Z,7.18
2023-08-11T20:14:12.233Z,5.10
2023-08-11T20:19:04.257Z,14.60
2023-08-11T20:23:56.038Z,6.40
2023-08-11T20:28:48.176Z,6.28
2023-08-11T20:33:39.953Z,5.13
2023-08-11T20:38:31.743Z,4.40
2023-08-11T20:43:23.670Z,5.90
2023-08-11T20:48:15.535Z,8.13
2023-08-11T20:53:07.317Z,7.35
2023-08-11T20:57:59.045Z,4.38
2023-08-11T21:02:50.838Z,7.60
2023-08-11T21:07:43.012Z,8.55
2023-08-11T21:12:34.917Z,6.60
2023-08-11T21:17:26.822Z,8.73
2023-08-11T21:22:18.614Z,7.10
2023-08-11T21:27:10.854Z,7.57
2023-08-11T21:32:03.256Z,6.38
2023-08-11T21:36:55.050Z,6.07
2023-08-11T21:41:47.097Z,4.50
2023-08-11T21:46:38.943Z,4.75
2023-08-11T21:51:30.727Z,4.32
2023-08-11T21:56:22.487Z,4.63
2023-08-11T22:01:14.583Z,6.38
2023-08-11T22:06:06.635Z,4.60
2023-08-11T22:10:58.459Z,5.32
2023-08-11T22:15:51.126Z,4.22
2023-08-11T22:20:44.059Z,5.30
2023-08-11T22:25:35.848Z,5.53
2023-08-11T22:30:27.664Z,6.00
2023-08-11T22:35:19.578Z,5.72
2023-08-11T22:40:11.722Z,3.50
2023-08-11T22:45:03.809Z,5.18
2023-08-11T22:49:56.836Z,5.35
2023-08-11T22:54:48.722Z,4.45
2023-08-11T22:59:41.657Z,5.40
2023-08-11T23:04:33.525Z,14.10
2023-08-11T23:09:26.644Z,5.03
2023-08-11T23:14:19.847Z,10.30
2023-08-11T23:19:11.685Z,5.35
2023-08-11T23:24:03.641Z,7.35
2023-08-11T23:28:55.426Z,6.20
2023-08-11T23:33:47.582Z,7.60
2023-08-11T23:38:39.458Z,6.13
2023-08-11T23:43:31.366Z,7.80
2023-08-11T23:48:23.260Z,5.05
2023-08-11T23:53:15.277Z,5.85
2023-08-11T23:58:07.055Z,6.25
